createdAt,value
2022-11-19T00:00:47.056Z,1.30
2022-11-19T00:01:48.661Z,1.30
2022-11-19T00:02:54.544Z,1.30
2022-11-19T00:03:56.544Z,1.30
2022-11-19T00:04:58.252Z,1.30
2022-11-19T00:06:05.403Z,1.40
2022-11-19T00:07:07.072Z,1.40
2022-11-19T00:08:09.625Z,1.30
2022-11-19T00:09:14.281Z,1.30
2022-11-19T00:10:16.345Z,1.30
2022-11-19T00:11:42.652Z,1.20
2022-11-19T00:12:56.475Z,1.20
2022-11-19T00:13:58.108Z,1.20
2022-11-19T00:14:59.829Z,1.20
2022-11-19T00:16:06.895Z,1.10
2022-11-19T00:17:08.513Z,1.20
2022-11-19T00:18:10.144Z,1.10
2022-11-19T00:19:12.512Z,1.20
2022-11-19T00:20:14.573Z,1.20
2022-11-19T00:21:16.191Z,1.20
2022-11-19T00:22:17.791Z,1.30
2022-11-19T00:23:19.405Z,1.30
2022-11-19T00:24:22.538Z,1.20
2022-11-19T00:25:27.438Z,1.30
2022-11-19T00:26:29.106Z,1.30
2022-11-19T00:27:31.330Z,1.30
2022-11-19T00:28:33.038Z,1.30
2022-11-19T00:29:34.669Z,1.30
2022-11-19T00:30:51.644Z,1.30
2022-11-19T00:31:53.269Z,1.30
2022-11-19T00:32:56.356Z,1.20
2022-11-19T00:33:58.120Z,1.20
2022-11-19T00:34:59.724Z,1.20
2022-11-19T00:36:02.202Z,1.20
2022-11-19T00:37:03.876Z,1.20
2022-11-19T00:38:05.748Z,1.20
2022-11-19T00:39:07.439Z,1.20
2022-11-19T00:40:11.870Z,1.20
2022-11-19T00:41:13.649Z,1.10
2022-11-19T00:42:15.266Z,1.00
2022-11-19T00:43:35.673Z,1.00
2022-11-19T00:44:37.693Z,0.90
2022-11-19T00:45:41.091Z,0.90
2022-11-19T00:46:42.675Z,0.90
2022-11-19T00:47:44.301Z,0.90
2022-11-19T00:48:47.805Z,0.90
2022-11-19T00:49:49.445Z,0.90
2022-11-19T00:50:51.088Z,0.90
2022-11-19T00:51:53.152Z,0.90
2022-11-19T00:52:54.828Z,0.90
2022-11-19T00:53:57.037Z,1.00
2022-11-19T00:54:58.597Z,1.00
2022-11-19T00:56:01.956Z,1.00
2022-11-19T00:57:03.656Z,1.10
2022-11-19T00:58:05.246Z,1.10
2022-11-19T00:59:07.199Z,1.10
2022-11-19T01:00:09.590Z,1.10
2022-11-19T01:01:12.319Z,1.10
2022-11-19T01:02:14.044Z,1.10
2022-11-19T01:03:15.656Z,1.20
2022-11-19T01:04:17.329Z,1.20
2022-11-19T01:05:18.969Z,1.10
2022-11-19T01:06:23.244Z,1.10
2022-11-19T01:07:25.046Z,1.20
2022-11-19T01:08:26.955Z,1.10
2022-11-19T01:09:29.450Z,1.20
2022-11-19T01:10:31.055Z,1.20
2022-11-19T01:11:35.174Z,1.20
2022-11-19T01:12:56.736Z,1.20
2022-11-19T01:13:59.372Z,1.10
2022-11-19T01:15:00.987Z,1.10
2022-11-19T01:16:12.155Z,1.10
2022-11-19T01:17:13.752Z,1.10
2022-11-19T01:18:15.858Z,1.20
2022-11-19T01:19:18.033Z,1.10
2022-11-19T01:20:20.050Z,1.00
2022-11-19T01:21:24.353Z,1.10
2022-11-19T01:22:26.170Z,1.10
2022-11-19T01:23:28.431Z,1.10
2022-11-19T01:24:30.103Z,1.10
2022-11-19T01:25:31.741Z,1.10
2022-11-19T01:26:33.582Z,1.10
2022-11-19T01:27:35.215Z,1.10
2022-11-19T01:28:37.279Z,1.10
2022-11-19T01:29:38.867Z,1.10
2022-11-19T01:30:41.987Z,1.00
2022-11-19T01:31:43.619Z,1.00
2022-11-19T01:32:45.250Z,1.00
2022-11-19T01:33:47.588Z,0.90
2022-11-19T01:34:50.102Z,1.00
2022-11-19T01:36:03.883Z,1.00
2022-11-19T01:37:05.494Z,1.00
2022-11-19T01:38:07.272Z,0.90
2022-11-19T01:39:08.875Z,0.90
2022-11-19T01:40:11.005Z,0.90
2022-11-19T01:41:12.619Z,0.80
2022-11-19T01:42:44.572Z,0.80
2022-11-19T01:44:00.348Z,0.90
2022-11-19T01:45:07.945Z,1.00
2022-11-19T01:46:11.746Z,1.00
2022-11-19T01:47:13.513Z,0.90
2022-11-19T01:48:21.877Z,1.00
2022-11-19T01:49:23.678Z,1.00
2022-11-19T01:50:26.537Z,0.90
2022-11-19T01:52:19.815Z,0.90
2022-11-19T01:58:53.155Z,0.90
2022-11-19T02:00:31.438Z,1.00
2022-11-19T02:01:39.192Z,1.00
2022-11-19T02:02:56.287Z,1.00
2022-11-19T02:04:29.955Z,1.00
2022-11-19T02:05:48.994Z,0.90
2022-11-19T02:07:16.947Z,0.90
2022-11-19T02:09:01.561Z,0.80
2022-11-19T02:10:14.903Z,0.80
2022-11-19T02:11:40.432Z,0.80
2022-11-19T02:18:50.470Z,0.80
2022-11-19T02:20:23.076Z,0.90
2022-11-19T02:21:56.199Z,0.70
2022-11-19T02:23:22.589Z,0.80
2022-11-19T02:24:54.087Z,0.80
2022-11-19T02:26:31.398Z,0.80
2022-11-19T02:28:22.766Z,0.80
2022-11-19T02:29:37.409Z,0.80
2022-11-19T02:30:49.234Z,0.70
2022-11-19T02:32:28.224Z,0.60
2022-11-19T02:33:43.571Z,0.70
2022-11-19T02:35:00.084Z,0.70
2022-11-19T02:36:39.275Z,0.80
2022-11-19T02:37:52.434Z,0.80
2022-11-19T02:39:02.754Z,0.70
2022-11-19T02:40:16.794Z,0.80
2022-11-19T02:41:45.833Z,0.70
2022-11-19T02:42:53.683Z,0.80
2022-11-19T02:44:19.614Z,0.80
2022-11-19T02:45:38.610Z,0.80
2022-11-19T02:46:42.263Z,0.80
2022-11-19T02:47:57.222Z,0.80
2022-11-19T02:49:07.260Z,0.80
2022-11-19T02:50:25.312Z,0.90
2022-11-19T02:51:29.838Z,0.80
2022-11-19T02:52:33.568Z,0.90
2022-11-19T02:53:40.772Z,0.90
2022-11-19T02:54:44.093Z,0.80
2022-11-19T02:56:08.901Z,0.90
2022-11-19T02:57:14.141Z,0.80
2022-11-19T02:58:40.135Z,0.80
2022-11-19T03:00:23.648Z,0.90
2022-11-19T03:01:48.962Z,0.80
2022-11-19T03:03:36.937Z,0.70
2022-11-19T03:04:40.366Z,0.60
2022-11-19T03:05:49.669Z,0.50
2022-11-19T03:06:53.806Z,0.60
2022-11-19T03:07:59.831Z,0.60
2022-11-19T03:09:02.279Z,0.60
2022-11-19T03:10:08.871Z,0.50
2022-11-19T03:11:30.462Z,0.50
2022-11-19T03:13:00.147Z,0.50
2022-11-19T03:14:32.948Z,0.50
2022-11-19T03:16:04.940Z,0.50
2022-11-19T03:17:24.456Z,0.40
2022-11-19T03:18:37.338Z,0.30
2022-11-19T03:20:09.811Z,0.30
2022-11-19T03:21:31.845Z,0.30
2022-11-19T03:22:45.901Z,0.40
2022-11-19T03:24:04.795Z,0.40
2022-11-19T03:25:16.432Z,0.40
2022-11-19T03:26:40.958Z,0.30
2022-11-19T03:27:51.293Z,0.30
2022-11-19T03:28:55.123Z,0.30
2022-11-19T03:30:01.159Z,0.30
2022-11-19T03:31:06.867Z,0.30
2022-11-19T03:32:22.506Z,0.40
2022-11-19T03:33:31.076Z,0.40
2022-11-19T03:34:35.167Z,0.30
2022-11-19T03:35:43.501Z,0.30
2022-11-19T03:36:50.957Z,0.40
2022-11-19T03:37:56.618Z,0.40
2022-11-19T03:39:02.920Z,0.40
2022-11-19T03:40:06.981Z,0.40
2022-11-19T03:41:12.597Z,0.40
2022-11-19T03:42:17.254Z,0.40
2022-11-19T03:43:22.545Z,0.50
2022-11-19T03:44:39.700Z,0.50
2022-11-19T03:45:44.356Z,0.40
2022-11-19T03:46:48.774Z,0.30
2022-11-19T03:47:52.122Z,0.30
2022-11-19T03:48:56.257Z,0.20
2022-11-19T03:50:09.558Z,0.20
2022-11-19T03:51:20.033Z,0.20
2022-11-19T03:52:22.758Z,0.20
2022-11-19T03:53:25.293Z,0.20
2022-11-19T03:54:27.018Z,0.10
2022-11-19T03:55:39.318Z,0.10
2022-11-19T03:56:41.987Z,0.20
2022-11-19T03:57:44.135Z,0.20
2022-11-19T03:58:47.358Z,0.20
2022-11-19T03:59:48.992Z,0.20
2022-11-19T04:00:50.679Z,0.10
2022-11-19T04:01:55.145Z,0.10
2022-11-19T04:02:57.053Z,0.10
2022-11-19T04:04:17.513Z,0.10
2022-11-19T04:05:19.135Z,0.10
2022-11-19T04:06:20.817Z,0.10
2022-11-19T04:07:23.927Z,0.10
2022-11-19T04:08:25.844Z,0.10
2022-11-19T04:09:27.493Z,0.10
2022-11-19T04:11:31.545Z,0.00
2022-11-19T04:12:33.162Z,-0.10
2022-11-19T04:13:34.775Z,-0.20
2022-11-19T04:14:36.384Z,-0.30
2022-11-19T04:15:38.022Z,-0.30
2022-11-19T04:16:39.739Z,-0.30
2022-11-19T04:17:41.456Z,-0.30
2022-11-19T04:18:43.040Z,-0.30
2022-11-19T04:19:45.121Z,-0.20
2022-11-19T04:20:46.727Z,-0.20
2022-11-19T04:21:48.527Z,-0.30
2022-11-19T04:22:53.162Z,-0.30
2022-11-19T04:23:54.759Z,-0.40
2022-11-19T04:24:56.523Z,-0.40
2022-11-19T04:25:58.204Z,-0.40
2022-11-19T04:26:59.945Z,-0.40
2022-11-19T04:28:01.593Z,-0.40
2022-11-19T04:29:03.515Z,-0.40
2022-11-19T04:30:05.894Z,-0.30
2022-11-19T04:31:07.561Z,-0.30
2022-11-19T04:32:09.436Z,-0.20
2022-11-19T04:33:11.024Z,-0.20
2022-11-19T04:34:12.960Z,-0.30
2022-11-19T04:35:14.753Z,-0.30
2022-11-19T04:36:19.552Z,-0.40
2022-11-19T04:37:21.304Z,-0.40
2022-11-19T04:38:23.100Z,-0.40
2022-11-19T04:39:24.716Z,-0.40
2022-11-19T04:40:26.323Z,-0.40
2022-11-19T04:41:28.009Z,-0.40
2022-11-19T04:42:29.582Z,-0.50
2022-11-19T04:43:31.193Z,-0.40
2022-11-19T04:44:33.063Z,-0.30
2022-11-19T04:45:34.725Z,-0.30
2022-11-19T04:46:36.573Z,-0.30
2022-11-19T04:47:38.207Z,-0.40
2022-11-19T04:48:39.825Z,-0.30
2022-11-19T04:49:41.405Z,-0.30
2022-11-19T04:50:43.042Z,-0.30
2022-11-19T04:51:44.625Z,-0.40
2022-11-19T04:52:46.312Z,-0.50
2022-11-19T04:53:47.918Z,-0.50
2022-11-19T04:54:49.666Z,-0.50
2022-11-19T04:55:51.313Z,-0.50
2022-11-19T04:56:53.209Z,-0.50
2022-11-19T04:57:54.800Z,-0.60
2022-11-19T04:58:56.474Z,-0.60
2022-11-19T04:59:58.060Z,-0.60
2022-11-19T05:00:59.802Z,-0.60
2022-11-19T05:02:01.435Z,-0.60
2022-11-19T05:03:03.317Z,-0.60
2022-11-19T05:04:06.086Z,-0.60
2022-11-19T05:05:08.259Z,-0.70
2022-11-19T05:06:10.020Z,-0.70
2022-11-19T05:07:14.028Z,-0.70
2022-11-19T05:08:15.636Z,-0.80
2022-11-19T05:09:17.641Z,-0.70
2022-11-19T05:10:22.245Z,-0.70
2022-11-19T05:11:23.866Z,-0.70
2022-11-19T05:12:25.482Z,-0.70
2022-11-19T05:13:27.095Z,-0.70
2022-11-19T05:14:30.481Z,-0.70
2022-11-19T05:15:34.672Z,-0.80
2022-11-19T05:16:37.375Z,-0.70
2022-11-19T05:17:39.017Z,-0.70
2022-11-19T05:18:40.617Z,-0.70
2022-11-19T05:19:42.354Z,-0.80
2022-11-19T05:20:43.967Z,-0.90
2022-11-19T05:21:45.792Z,-0.90
2022-11-19T05:22:47.391Z,-0.90
2022-11-19T05:23:48.995Z,-0.80
2022-11-19T05:24:50.672Z,-0.80
2022-11-19T05:25:52.811Z,-0.80
2022-11-19T05:26:54.522Z,-0.90
2022-11-19T05:27:56.194Z,-1.00
2022-11-19T05:28:57.768Z,-1.00
2022-11-19T05:29:59.393Z,-1.00
2022-11-19T05:31:00.975Z,-1.00
2022-11-19T05:32:02.884Z,-1.00
2022-11-19T05:33:04.528Z,-1.00
2022-11-19T05:34:06.241Z,-1.00
2022-11-19T05:35:08.482Z,-1.00
2022-11-19T05:36:10.153Z,-0.90
2022-11-19T05:37:11.921Z,-0.90
2022-11-19T05:38:16.293Z,-0.90
2022-11-19T05:39:22.160Z,-1.00
2022-11-19T05:40:24.193Z,-0.90
2022-11-19T05:41:25.841Z,-1.00
2022-11-19T05:42:27.435Z,-1.10
2022-11-19T05:43:28.981Z,-1.10
2022-11-19T05:44:30.709Z,-1.10
2022-11-19T05:45:32.538Z,-1.00
2022-11-19T05:46:34.235Z,-1.00
2022-11-19T05:47:36.313Z,-1.00
2022-11-19T05:48:37.929Z,-1.00
2022-11-19T05:49:39.719Z,-1.00
2022-11-19T05:50:42.660Z,-1.00
2022-11-19T05:51:46.220Z,-1.10
2022-11-19T05:52:47.877Z,-1.10
2022-11-19T05:53:49.507Z,-1.10
2022-11-19T05:54:51.190Z,-1.20
2022-11-19T05:55:52.775Z,-1.20
2022-11-19T05:56:54.344Z,-1.30
2022-11-19T05:57:55.959Z,-1.30
2022-11-19T05:58:57.553Z,-1.30
2022-11-19T05:59:59.196Z,-1.30
2022-11-19T06:01:00.861Z,-1.30
2022-11-19T06:02:02.590Z,-1.30
2022-11-19T06:03:04.400Z,-1.30
2022-11-19T06:04:06.067Z,-1.20
2022-11-19T06:05:08.161Z,-1.20
2022-11-19T06:06:09.789Z,-1.20
2022-11-19T06:07:11.486Z,-1.20
2022-11-19T06:08:13.195Z,-1.20
2022-11-19T06:09:17.966Z,-1.30
2022-11-19T06:10:19.789Z,-1.40
2022-11-19T06:11:40.095Z,-1.40
2022-11-19T06:12:45.805Z,-1.40
2022-11-19T06:13:50.881Z,-1.40
2022-11-19T06:14:52.519Z,-1.40
2022-11-19T06:15:54.170Z,-1.50
2022-11-19T06:16:58.030Z,-1.60
2022-11-19T06:17:59.655Z,-1.60
2022-11-19T06:19:03.563Z,-1.70
2022-11-19T06:20:08.589Z,-1.60
2022-11-19T06:21:12.326Z,-1.60
2022-11-19T06:22:14.191Z,-1.50
2022-11-19T06:23:15.795Z,-1.50
2022-11-19T06:24:18.228Z,-1.60
2022-11-19T06:25:19.914Z,-1.70
2022-11-19T06:26:25.837Z,-1.80
2022-11-19T06:27:29.956Z,-1.70
2022-11-19T06:28:31.622Z,-1.70
2022-11-19T06:29:33.500Z,-1.70
2022-11-19T06:30:35.231Z,-1.60
2022-11-19T06:31:36.886Z,-1.60
2022-11-19T06:32:38.622Z,-1.60
2022-11-19T06:33:40.400Z,-1.50
2022-11-19T06:34:42.233Z,-1.70
2022-11-19T06:35:44.073Z,-1.80
2022-11-19T06:36:50.371Z,-1.80
2022-11-19T06:37:54.178Z,-1.90
2022-11-19T06:38:55.864Z,-1.80
2022-11-19T06:39:57.648Z,-1.80
2022-11-19T06:40:59.365Z,-1.80
2022-11-19T06:42:20.969Z,-1.80
2022-11-19T06:43:22.551Z,-1.90
2022-11-19T06:44:24.691Z,-1.90
2022-11-19T06:45:26.501Z,-1.80
2022-11-19T06:46:28.177Z,-1.80
2022-11-19T06:47:31.277Z,-1.80
2022-11-19T06:48:33.006Z,-1.70
2022-11-19T06:49:35.496Z,-1.70
2022-11-19T06:50:37.175Z,-1.70
2022-11-19T06:51:38.773Z,-1.70
2022-11-19T06:52:40.391Z,-1.70
2022-11-19T06:53:42.081Z,-1.80
2022-11-19T06:54:43.742Z,-1.80
2022-11-19T06:55:45.376Z,-1.90
2022-11-19T06:56:46.962Z,-1.90
2022-11-19T06:57:48.647Z,-1.90
2022-11-19T06:58:50.438Z,-2.00
2022-11-19T06:59:52.059Z,-2.00
2022-11-19T07:00:54.175Z,-2.00
2022-11-19T07:01:55.907Z,-2.00
2022-11-19T07:02:57.678Z,-2.00
2022-11-19T07:03:59.698Z,-2.00
2022-11-19T07:05:01.576Z,-1.90
2022-11-19T07:06:04.814Z,-1.90
2022-11-19T07:07:06.670Z,-1.90
2022-11-19T07:08:08.571Z,-1.90
2022-11-19T07:09:10.189Z,-2.00
2022-11-19T07:10:12.265Z,-2.00
2022-11-19T07:11:26.207Z,-2.10
2022-11-19T07:12:27.879Z,-2.10
2022-11-19T07:13:49.455Z,-2.10
2022-11-19T07:14:51.326Z,-2.00
2022-11-19T07:15:52.972Z,-2.00
2022-11-19T07:16:56.290Z,-1.90
2022-11-19T07:17:58.773Z,-1.90
2022-11-19T07:19:02.313Z,-1.90
2022-11-19T07:20:05.205Z,-1.90
2022-11-19T07:21:06.798Z,-1.90
2022-11-19T07:22:08.523Z,-1.90
2022-11-19T07:23:10.872Z,-1.90
2022-11-19T07:24:13.034Z,-1.90
2022-11-19T07:25:14.814Z,-1.90
2022-11-19T07:26:16.400Z,-1.90
2022-11-19T07:27:18.144Z,-1.90
2022-11-19T07:28:19.836Z,-1.90
2022-11-19T07:29:21.949Z,-1.90
2022-11-19T07:30:23.869Z,-2.00
2022-11-19T07:31:25.525Z,-2.10
2022-11-19T07:32:27.188Z,-2.00
2022-11-19T07:33:29.115Z,-2.10
2022-11-19T07:34:30.824Z,-2.10
2022-11-19T07:35:32.407Z,-2.00
2022-11-19T07:36:35.353Z,-2.00
2022-11-19T07:37:37.870Z,-1.90
2022-11-19T07:38:39.591Z,-1.90
2022-11-19T07:39:46.744Z,-1.90
2022-11-19T07:40:55.215Z,-1.90
2022-11-19T07:42:15.683Z,-1.80
2022-11-19T07:43:17.357Z,-1.80
2022-11-19T07:44:19.104Z,-1.80
2022-11-19T07:45:22.230Z,-1.80
2022-11-19T07:46:24.123Z,-1.80
2022-11-19T07:47:26.209Z,-1.70
2022-11-19T07:48:27.851Z,-1.70
2022-11-19T07:49:29.562Z,-1.80
2022-11-19T07:50:31.518Z,-1.80
2022-11-19T07:51:33.256Z,-1.80
2022-11-19T07:52:35.012Z,-1.80
2022-11-19T07:53:36.635Z,-1.90
2022-11-19T07:54:38.309Z,-1.90
2022-11-19T07:55:42.151Z,-2.00
2022-11-19T07:56:43.922Z,-2.00
2022-11-19T07:57:45.493Z,-2.00
2022-11-19T07:58:49.940Z,-2.00
2022-11-19T07:59:51.668Z,-2.00
2022-11-19T08:00:53.295Z,-2.00
2022-11-19T08:01:55.212Z,-2.00
2022-11-19T08:02:56.902Z,-2.00
2022-11-19T08:03:59.384Z,-2.00
2022-11-19T08:05:01.098Z,-2.00
2022-11-19T08:06:04.728Z,-2.00
2022-11-19T08:07:08.379Z,-2.00
2022-11-19T08:08:10.111Z,-1.90
2022-11-19T08:09:11.970Z,-1.90
2022-11-19T08:10:13.672Z,-1.90
2022-11-19T08:11:16.927Z,-1.80
2022-11-19T08:12:18.687Z,-1.80
2022-11-19T08:13:20.395Z,-1.80
2022-11-19T08:14:22.092Z,-1.70
2022-11-19T08:15:23.718Z,-1.60
2022-11-19T08:16:43.815Z,-1.50
2022-11-19T08:18:04.226Z,-1.40
2022-11-19T08:19:09.484Z,-1.40
2022-11-19T08:20:11.387Z,-1.20
2022-11-19T08:21:13.048Z,-1.30
2022-11-19T08:22:14.731Z,-1.30
2022-11-19T08:23:16.390Z,-1.30
2022-11-19T08:24:20.896Z,-1.20
2022-11-19T08:25:22.747Z,-1.20
2022-11-19T08:26:24.541Z,-1.20
2022-11-19T08:27:26.134Z,-1.20
2022-11-19T08:28:28.357Z,-1.10
2022-11-19T08:29:29.918Z,-1.10
2022-11-19T08:30:33.414Z,-1.00
2022-11-19T08:31:35.017Z,-1.00
2022-11-19T08:32:37.266Z,-0.90
2022-11-19T08:33:38.836Z,-0.90
2022-11-19T08:34:40.451Z,-0.80
2022-11-19T08:35:42.980Z,-0.80
2022-11-19T08:36:44.711Z,-0.80
2022-11-19T08:37:47.418Z,-0.70
2022-11-19T08:38:49.044Z,-0.70
2022-11-19T08:39:50.664Z,-0.80
2022-11-19T08:41:13.737Z,-0.80
2022-11-19T08:42:33.899Z,-0.70
2022-11-19T08:43:35.472Z,-0.70
2022-11-19T08:44:37.087Z,-0.60
2022-11-19T08:45:39.446Z,-0.60
2022-11-19T08:46:41.655Z,-0.70
2022-11-19T08:47:43.236Z,-0.70
2022-11-19T08:48:44.924Z,-0.60
2022-11-19T08:49:46.523Z,-0.50
2022-11-19T08:50:48.223Z,-0.50
2022-11-19T08:51:49.833Z,-0.40
2022-11-19T08:52:59.780Z,-0.30
2022-11-19T08:54:01.560Z,-0.30
2022-11-19T08:55:03.490Z,-0.20
2022-11-19T08:56:06.299Z,-0.10
2022-11-19T08:57:07.893Z,-0.10
2022-11-19T08:58:11.595Z,0.10
2022-11-19T08:59:13.233Z,0.00
2022-11-19T09:00:15.473Z,0.10
2022-11-19T09:01:17.723Z,0.10
2022-11-19T09:02:19.352Z,0.10
2022-11-19T09:03:20.954Z,0.20
2022-11-19T09:04:22.895Z,0.20
2022-11-19T09:05:25.358Z,0.30
2022-11-19T09:06:27.096Z,0.40
2022-11-19T09:07:28.799Z,0.40
2022-11-19T09:08:31.292Z,0.40
2022-11-19T09:09:33.077Z,0.50
2022-11-19T09:10:35.329Z,0.50
2022-11-19T09:11:41.345Z,0.40
2022-11-19T09:12:44.581Z,0.50
2022-11-19T09:13:46.478Z,0.50
2022-11-19T09:14:48.120Z,0.50
2022-11-19T09:15:53.276Z,0.50
2022-11-19T09:16:54.912Z,0.40
2022-11-19T09:17:56.541Z,0.40
2022-11-19T09:18:58.136Z,0.30
2022-11-19T09:19:59.728Z,0.30
2022-11-19T09:21:01.325Z,0.30
2022-11-19T09:22:02.994Z,0.30
2022-11-19T09:23:04.812Z,0.20
2022-11-19T09:24:06.580Z,0.30
2022-11-19T09:25:08.985Z,0.30
2022-11-19T09:26:15.880Z,0.40
2022-11-19T09:27:17.850Z,0.40
2022-11-19T09:28:19.536Z,0.40
2022-11-19T09:29:21.212Z,0.50
2022-11-19T09:30:22.800Z,0.50
2022-11-19T09:31:24.422Z,0.50
2022-11-19T09:32:27.866Z,0.50
2022-11-19T09:33:30.726Z,0.60
2022-11-19T09:34:34.973Z,0.70
2022-11-19T09:35:36.560Z,0.70
2022-11-19T09:36:38.133Z,0.70
2022-11-19T09:37:39.753Z,0.70
2022-11-19T09:38:41.982Z,0.80
2022-11-19T09:39:43.555Z,0.90
2022-11-19T09:40:47.858Z,1.00
2022-11-19T09:42:22.341Z,0.90
2022-11-19T09:43:49.360Z,0.90
2022-11-19T09:44:57.239Z,0.80
2022-11-19T09:46:24.895Z,0.80
2022-11-19T09:47:52.752Z,0.90
2022-11-19T09:48:58.907Z,1.00
2022-11-19T09:50:16.563Z,1.00
2022-11-19T09:51:24.221Z,1.20
2022-11-19T09:52:30.090Z,1.30
2022-11-19T09:53:43.584Z,1.40
2022-11-19T09:54:50.716Z,1.50
2022-11-19T09:55:54.864Z,1.70
2022-11-19T09:57:03.182Z,1.80
2022-11-19T09:58:28.693Z,1.70
2022-11-19T09:59:40.603Z,1.90
2022-11-19T10:00:44.867Z,2.10
2022-11-19T10:02:12.400Z,2.30
2022-11-19T10:09:39.499Z,5.30
2022-11-19T10:22:08.012Z,6.60
2022-11-19T10:26:19.007Z,8.60
2022-11-19T10:45:13.080Z,11.30
2022-11-19T10:55:23.467Z,10.70
2022-11-19T11:01:49.938Z,9.80
2022-11-19T11:04:07.038Z,9.60
2022-11-19T11:05:52.820Z,9.50
2022-11-19T11:16:45.895Z,8.40
2022-11-19T11:20:24.224Z,8.00
2022-11-19T11:21:30.836Z,7.70
2022-11-19T11:22:33.051Z,7.80
2022-11-19T11:23:45.618Z,7.80
2022-11-19T11:24:47.289Z,8.00
2022-11-19T11:26:08.638Z,7.90
2022-11-19T11:27:33.305Z,7.60
2022-11-19T11:28:36.189Z,7.70
2022-11-19T11:29:37.963Z,7.80
2022-11-19T11:30:54.367Z,7.90
2022-11-19T11:31:56.106Z,8.00
2022-11-19T11:32:57.813Z,7.80
2022-11-19T11:34:02.216Z,8.10
2022-11-19T11:35:08.220Z,8.40
2022-11-19T11:36:15.424Z,8.50
2022-11-19T11:37:17.318Z,8.60
2022-11-19T11:38:23.999Z,8.70
2022-11-19T11:39:29.209Z,8.70
2022-11-19T11:40:31.356Z,8.90
2022-11-19T11:42:05.353Z,9.30
2022-11-19T11:43:00.807Z,9.60
2022-11-19T11:44:17.820Z,9.30
2022-11-19T11:45:35.027Z,9.20
2022-11-19T11:46:52.458Z,8.20
2022-11-19T11:47:57.252Z,8.50
2022-11-19T11:49:05.746Z,8.50
2022-11-19T11:50:21.516Z,8.60
2022-11-19T11:51:28.197Z,8.40
2022-11-19T11:52:34.665Z,8.60
2022-11-19T11:53:36.281Z,9.10
2022-11-19T11:54:53.453Z,8.80
2022-11-19T11:55:59.929Z,9.00
2022-11-19T11:57:20.301Z,9.20
2022-11-19T11:58:31.197Z,9.40
2022-11-19T11:59:33.172Z,9.70
2022-11-19T12:00:43.759Z,9.90
2022-11-19T12:01:54.574Z,10.20
2022-11-19T12:03:04.036Z,10.70
2022-11-19T12:04:11.261Z,10.90
2022-11-19T12:05:17.938Z,10.90
2022-11-19T12:06:22.518Z,11.10
2022-11-19T12:07:50.381Z,11.00
2022-11-19T12:09:03.561Z,11.40
2022-11-19T12:10:17.993Z,11.50
2022-11-19T12:11:56.537Z,12.40
2022-11-19T12:13:00.738Z,13.00
2022-11-19T12:14:11.364Z,13.10
2022-11-19T12:15:38.526Z,13.30
2022-11-19T12:17:06.477Z,13.30
2022-11-19T12:18:55.209Z,13.40
2022-11-19T12:20:09.711Z,12.70
2022-11-19T12:21:24.604Z,12.90
2022-11-19T12:22:29.181Z,12.20
2022-11-19T12:24:01.092Z,11.50
2022-11-19T12:25:20.520Z,11.10
2022-11-19T12:26:54.228Z,10.20
2022-11-19T12:28:30.917Z,10.20
2022-11-19T12:29:42.865Z,10.10
2022-11-19T12:31:08.625Z,9.70
2022-11-19T12:32:29.050Z,9.80
2022-11-19T12:33:55.790Z,9.50
2022-11-19T12:35:12.732Z,9.20
2022-11-19T12:36:28.511Z,9.20
2022-11-19T12:37:32.727Z,9.00
2022-11-19T12:39:02.236Z,8.10
2022-11-19T12:40:38.849Z,7.00
2022-11-19T12:42:07.289Z,6.60
2022-11-19T12:43:33.609Z,6.50
2022-11-19T12:44:58.919Z,6.50
2022-11-19T12:46:38.132Z,6.60
2022-11-19T12:48:06.859Z,6.50
2022-11-19T12:49:20.954Z,6.10
2022-11-19T12:50:29.134Z,6.00
2022-11-19T12:51:58.449Z,5.90
2022-11-19T12:53:31.495Z,5.90
2022-11-19T12:55:04.460Z,6.10
2022-11-19T12:56:33.760Z,5.90
2022-11-19T12:57:45.562Z,5.40
2022-11-19T12:58:57.030Z,5.50
2022-11-19T13:00:19.869Z,5.70
2022-11-19T13:01:25.451Z,5.60
2022-11-19T13:02:32.283Z,5.60
2022-11-19T13:04:02.223Z,5.50
2022-11-19T13:05:18.024Z,5.20
2022-11-19T13:06:27.206Z,5.10
2022-11-19T13:07:40.239Z,4.90
2022-11-19T13:09:01.910Z,4.80
2022-11-19T13:10:16.487Z,4.70
2022-11-19T13:11:22.496Z,4.70
2022-11-19T13:12:31.883Z,4.60
2022-11-19T13:13:38.664Z,4.70
2022-11-19T13:14:44.526Z,4.50
2022-11-19T13:15:57.069Z,4.40
2022-11-19T13:17:00.174Z,4.50
2022-11-19T13:18:05.531Z,4.80
2022-11-19T13:19:22.597Z,4.90
2022-11-19T13:20:24.355Z,4.70
2022-11-19T13:21:44.345Z,4.90
2022-11-19T13:22:47.869Z,5.00
2022-11-19T13:23:52.310Z,4.80
2022-11-19T13:25:01.786Z,4.80
2022-11-19T13:26:08.933Z,4.80
2022-11-19T13:27:20.132Z,4.90
2022-11-19T13:28:37.815Z,5.00
2022-11-19T13:29:42.149Z,4.70
2022-11-19T13:30:47.036Z,4.40
2022-11-19T13:31:58.851Z,4.30
2022-11-19T13:33:28.041Z,4.40
2022-11-19T13:34:40.473Z,4.50
2022-11-19T13:35:47.222Z,4.60
2022-11-19T13:37:15.905Z,4.80
2022-11-19T13:38:43.691Z,5.10
2022-11-19T13:39:57.412Z,5.30
2022-11-19T13:41:13.104Z,5.50
2022-11-19T13:42:37.239Z,5.30
2022-11-19T13:43:58.152Z,5.20
2022-11-19T13:44:59.957Z,5.40
2022-11-19T13:46:18.121Z,5.30
2022-11-19T13:47:28.144Z,5.40
2022-11-19T13:48:39.558Z,5.20
2022-11-19T13:49:48.104Z,5.10
2022-11-19T13:50:52.253Z,5.00
2022-11-19T13:51:55.503Z,5.00
2022-11-19T13:53:13.954Z,5.20
2022-11-19T13:54:24.214Z,5.30
2022-11-19T13:55:28.549Z,5.50
2022-11-19T13:56:46.726Z,5.70
2022-11-19T13:57:48.890Z,5.90
2022-11-19T13:58:54.347Z,6.00
2022-11-19T14:00:08.161Z,6.30
2022-11-19T14:01:15.568Z,5.90
2022-11-19T14:02:35.798Z,5.50
2022-11-19T14:04:05.315Z,5.30
2022-11-19T14:05:38.334Z,5.30
2022-11-19T14:06:56.327Z,5.70
2022-11-19T14:08:04.091Z,6.00
2022-11-19T14:09:17.567Z,6.10
2022-11-19T14:10:32.003Z,6.30
2022-11-19T14:11:51.890Z,6.60
2022-11-19T14:13:11.374Z,7.00
2022-11-19T14:14:57.470Z,7.10
2022-11-19T14:16:53.523Z,7.00
2022-11-19T14:18:35.474Z,7.20
2022-11-19T14:20:10.260Z,6.80
2022-11-19T14:21:54.392Z,6.40
2022-11-19T14:23:15.883Z,6.30
2022-11-19T14:24:44.749Z,5.90
2022-11-19T14:26:09.582Z,6.00
2022-11-19T14:27:19.488Z,5.60
2022-11-19T14:28:50.365Z,5.80
2022-11-19T14:30:14.784Z,5.60
2022-11-19T14:31:19.050Z,5.60
2022-11-19T14:32:33.721Z,5.70
2022-11-19T14:33:47.438Z,5.60
2022-11-19T14:35:01.099Z,5.70
2022-11-19T14:36:13.246Z,6.00
2022-11-19T14:37:26.872Z,6.00
2022-11-19T14:38:36.321Z,5.90
2022-11-19T14:39:43.853Z,5.90
2022-11-19T14:40:46.058Z,5.50
2022-11-19T14:42:07.623Z,5.30
2022-11-19T14:43:27.681Z,5.10
2022-11-19T14:44:33.923Z,5.00
2022-11-19T14:45:35.546Z,5.10
2022-11-19T14:46:48.529Z,5.10
2022-11-19T14:47:50.188Z,4.80
2022-11-19T14:48:56.514Z,4.50
2022-11-19T14:49:59.511Z,4.40
2022-11-19T14:51:11.095Z,4.30
2022-11-19T14:52:28.132Z,4.20
2022-11-19T14:53:30.419Z,4.00
2022-11-19T14:54:40.220Z,3.70
2022-11-19T14:55:41.871Z,3.60
2022-11-19T14:56:48.672Z,3.50
2022-11-19T14:57:55.269Z,3.50
2022-11-19T14:59:14.729Z,3.50
2022-11-19T15:00:17.530Z,3.40
2022-11-19T15:01:21.411Z,3.40
2022-11-19T15:02:29.220Z,3.30
2022-11-19T15:03:31.050Z,3.30
2022-11-19T15:04:41.975Z,3.20
2022-11-19T15:05:46.308Z,3.10
2022-11-19T15:06:48.497Z,3.10
2022-11-19T15:07:56.167Z,3.10
2022-11-19T15:09:00.559Z,3.10
2022-11-19T15:10:22.391Z,3.00
2022-11-19T15:11:24.049Z,2.90
2022-11-19T15:12:47.928Z,2.90
2022-11-19T15:14:29.769Z,2.80
2022-11-19T15:15:36.913Z,2.80
2022-11-19T15:16:39.735Z,2.70
2022-11-19T15:17:41.416Z,2.70
2022-11-19T15:18:42.995Z,2.70
2022-11-19T15:20:13.752Z,2.70
2022-11-19T15:21:24.244Z,2.80
2022-11-19T15:22:49.375Z,2.80
2022-11-19T15:24:15.692Z,2.80
2022-11-19T15:25:32.256Z,2.70
2022-11-19T15:26:48.856Z,2.60
2022-11-19T15:28:31.615Z,2.50
2022-11-19T15:29:42.322Z,2.40
2022-11-19T15:30:55.866Z,2.30
2022-11-19T15:32:12.228Z,2.20
2022-11-19T15:33:26.892Z,2.10
2022-11-19T15:34:49.032Z,2.00
2022-11-19T15:36:18.882Z,1.90
2022-11-19T15:37:27.611Z,1.80
2022-11-19T15:38:39.667Z,1.70
2022-11-19T15:39:50.190Z,1.70
2022-11-19T15:41:02.220Z,1.60
2022-11-19T15:42:07.108Z,1.60
2022-11-19T15:43:14.477Z,1.60
2022-11-19T15:44:19.000Z,1.50
2022-11-19T15:45:23.738Z,1.50
2022-11-19T15:46:42.663Z,1.50
2022-11-19T15:48:08.699Z,1.50
2022-11-19T15:49:10.237Z,1.50
2022-11-19T15:50:23.051Z,1.50
2022-11-19T15:51:24.810Z,1.50
2022-11-19T15:52:30.736Z,1.60
2022-11-19T15:53:32.404Z,1.70
2022-11-19T15:54:35.481Z,1.70
2022-11-19T15:55:37.716Z,1.50
2022-11-19T15:56:47.496Z,1.40
2022-11-19T15:57:53.622Z,1.30
2022-11-19T15:58:58.630Z,1.30
2022-11-19T16:00:02.083Z,1.20
2022-11-19T16:01:04.333Z,1.20
2022-11-19T16:02:19.818Z,1.20
2022-11-19T16:03:22.097Z,1.10
2022-11-19T16:04:28.572Z,1.10
2022-11-19T16:05:32.714Z,1.10
2022-11-19T16:06:35.947Z,1.10
2022-11-19T16:07:37.703Z,1.10
2022-11-19T16:08:39.385Z,1.10
2022-11-19T16:09:41.052Z,1.10
2022-11-19T16:10:46.771Z,1.10
2022-11-19T16:12:07.618Z,1.10
2022-11-19T16:13:43.338Z,1.10
2022-11-19T16:15:13.077Z,1.10
2022-11-19T16:16:39.655Z,1.10